Time;durP1;ratioP1;P1;durP2;ratioP2;P2;SDS_P1;SDS_P2;PMS_P1;PMS_P2;Temp;Humidity;BMP_temperature;BMP_pressure;BME280_temperature;BME280_humidity;BME280_pressure;Samples;Min_cycle;Max_cycle;Signal;HPM_P1;HPM_P2
2022/01/14 00:00:00;;;;;;;4.08;2.70;;;;;;;3.67;75.67;100104.91;1759629;79;20960;-71
2022/01/14 00:02:27;;;;;;;4.75;2.80;;;;;;;3.70;75.64;100111.87;1765472;79;21320;-70
2022/01/14 00:04:53;;;;;;;3.67;2.50;;;;;;;3.75;75.57;100110.71;1762651;79;21081;-73
2022/01/14 00:07:20;;;;;;;4.28;2.58;;;;;;;3.74;75.47;100113.55;1764182;79;21264;-70
2022/01/14 00:09:47;;;;;;;4.35;2.60;;;;;;;3.76;75.40;100099.62;1724217;81;21085;-70
2022/01/14 00:12:24;;;;;;;4.17;2.58;;;;;;;3.77;75.40;100114.44;1734564;81;21057;-71
2022/01/14 00:14:57;;;;;;;4.10;2.37;;;;;;;3.82;75.32;100128.28;1729537;81;21744;-70
2022/01/14 00:17:16;;;;;;;4.78;2.92;;;;;;;3.85;75.23;100119.91;1764123;79;21521;-71
2022/01/14 00:19:43;;;;;;;4.20;2.85;;;;;;;3.83;75.15;100104.30;1755129;79;21860;-71
2022/01/14 00:22:14;;;;;;;4.47;2.95;;;;;;;3.89;75.12;100110.02;1760392;79;21089;-71
2022/01/14 00:33:08;;;;;;;4.20;2.50;;;;;;;3.89;74.93;100106.58;1761217;79;28494;-71
2022/01/14 00:35:37;;;;;;;4.53;2.77;;;;;;;3.91;74.97;100105.30;1761322;79;21089;-71
2022/01/14 00:38:04;;;;;;;4.58;2.80;;;;;;;3.94;74.88;100096.92;1771745;79;21002;-72
2022/01/14 00:40:32;;;;;;;4.17;2.50;;;;;;;3.97;74.78;100098.31;1761661;81;22029;-72
2022/01/14 00:43:00;;;;;;;4.58;2.70;;;;;;;3.98;74.68;100093.31;1762703;81;21034;-72
2022/01/14 00:45:27;;;;;;;4.28;2.22;;;;;;;3.99;74.62;100089.66;1729515;79;21113;-72
2022/01/14 00:47:53;;;;;;;3.08;2.20;;;;;;;4.02;74.56;100109.03;1760969;79;21045;-73
2022/01/14 00:50:21;;;;;;;3.50;2.10;;;;;;;4.05;74.50;100095.86;1756531;79;21653;-72
2022/01/14 00:52:50;;;;;;;4.97;2.50;;;;;;;4.09;74.32;100088.59;1749730;81;21123;-71
2022/01/14 00:55:26;;;;;;;3.52;2.47;;;;;;;4.10;74.24;100092.05;1755519;81;21635;-70
2022/01/14 01:00:25;;;;;;;3.80;2.40;;;;;;;4.10;74.10;100074.86;1756379;79;21204;-71
2022/01/14 01:02:51;;;;;;;4.05;2.30;;;;;;;4.13;74.06;100094.23;1771711;79;20922;-70
2022/01/14 01:05:18;;;;;;;4.33;2.12;;;;;;;4.15;74.02;100089.55;1768121;79;21580;-71
2022/01/14 01:07:55;;;;;;;5.08;2.27;;;;;;;4.19;73.93;100082.77;1781055;79;21528;-70
2022/01/14 01:10:17;;;;;;;3.62;2.12;;;;;;;4.20;73.84;100073.80;1768060;79;21084;-71
2022/01/14 01:12:53;;;;;;;3.40;2.17;;;;;;;4.22;73.77;100071.22;1768331;79;21123;-70
2022/01/14 01:15:17;;;;;;;3.87;2.27;;;;;;;4.24;73.70;100063.05;1762335;79;21545;-70
2022/01/14 01:17:45;;;;;;;4.15;2.40;;;;;;;4.26;73.61;100065.48;1763306;80;22195;-71
2022/01/14 01:20:16;;;;;;;3.95;2.40;;;;;;;4.25;73.49;100063.87;1763038;81;21568;-70
2022/01/14 01:22:42;;;;;;;3.62;2.20;;;;;;;4.25;73.48;100052.78;1763212;79;21615;-71
2022/01/14 01:25:16;;;;;;;3.95;2.22;;;;;;;4.27;73.46;100043.29;1762371;81;21677;-71
2022/01/14 01:27:44;;;;;;;4.03;2.20;;;;;;;4.27;73.36;100044.09;1756373;79;21600;-71
2022/01/14 01:32:53;;;;;;;4.10;2.33;;;;;;;4.31;73.27;100028.09;1746473;81;21121;-71
2022/01/14 01:35:20;;;;;;;4.85;2.80;;;;;;;4.31;73.18;100009.58;1752665;81;21334;-71
2022/01/14 01:37:47;;;;;;;4.30;2.00;;;;;;;4.31;73.15;100014.87;1756817;81;21093;-71
2022/01/14 01:40:16;;;;;;;4.33;2.17;;;;;;;4.31;73.16;100002.14;1742104;81;21125;-71
2022/01/14 01:42:44;;;;;;;3.00;1.80;;;;;;;4.29;73.12;100007.67;1776647;79;21602;-70
2022/01/14 01:45:14;;;;;;;3.55;1.98;;;;;;;4.33;73.13;99992.95;1743080;81;20993;-70
2022/01/14 01:47:42;;;;;;;3.90;2.40;;;;;;;4.32;73.10;99975.48;1750105;81;21084;-70
2022/01/14 01:50:13;;;;;;;3.05;2.02;;;;;;;4.32;73.04;99978.66;1754388;81;21014;-70
2022/01/14 01:52:40;;;;;;;3.42;2.20;;;;;;;4.32;73.03;99958.83;1747774;81;21021;-71
2022/01/14 01:55:08;;;;;;;3.08;1.90;;;;;;;4.29;73.07;99946.06;1781473;79;21039;-71
2022/01/14 01:57:36;;;;;;;4.00;2.00;;;;;;;4.27;73.14;99919.84;1763325;81;21076;-70
2022/01/14 02:00:09;;;;;;;3.80;1.92;;;;;;;4.26;73.19;99919.56;1741908;81;21033;-70
2022/01/14 02:02:37;;;;;;;4.65;2.10;;;;;;;4.28;73.23;99907.42;1749002;81;21505;-71
2022/01/14 02:05:06;;;;;;;2.95;1.77;;;;;;;4.26;73.23;99904.23;1753250;81;21033;-71
2022/01/14 02:07:33;;;;;;;2.83;1.80;;;;;;;4.25;73.33;99898.66;1745873;81;21144;-70
2022/01/14 02:10:00;;;;;;;3.92;2.08;;;;;;;4.26;73.32;99895.77;1741982;81;21037;-70
2022/01/14 02:12:35;;;;;;;4.03;2.20;;;;;;;4.23;73.38;99901.00;1744751;81;21025;-70
2022/01/14 02:15:47;;;;;;;3.62;1.90;;;;;;;4.22;73.47;99886.19;1741847;81;21036;-70
2022/01/14 02:17:47;;;;;;;2.60;1.80;;;;;;;4.25;73.53;99874.88;1746584;81;21092;-70
2022/01/14 02:22:54;;;;;;;3.70;2.27;;;;;;;4.27;73.45;99892.09;1750307;81;21093;-69
2022/01/14 02:25:28;;;;;;;4.25;2.20;;;;;;;4.27;73.47;99885.48;1742346;81;21021;-69
2022/01/14 02:27:51;;;;;;;5.00;2.55;;;;;;;4.31;73.47;99893.25;1762665;81;21068;-69
2022/01/14 02:30:18;;;;;;;4.37;2.30;;;;;;;4.34;73.43;99917.87;1755702;81;21053;-69
2022/01/14 02:32:44;;;;;;;3.20;1.87;;;;;;;4.35;73.33;99888.30;1767269;79;21173;-69
2022/01/14 02:35:11;;;;;;;3.05;1.80;;;;;;;4.37;73.31;99898.11;1766902;79;21596;-69
2022/01/14 02:37:37;;;;;;;3.33;2.10;;;;;;;4.35;73.29;99894.39;1747040;81;21040;-69
2022/01/14 02:40:06;;;;;;;3.40;1.65;;;;;;;4.37;73.25;99899.44;1758671;81;21073;-68
2022/01/14 02:42:33;;;;;;;3.58;1.82;;;;;;;4.42;73.22;99902.20;1748087;81;21326;-70
2022/01/14 02:45:04;;;;;;;3.10;1.75;;;;;;;4.43;73.16;99878.67;1757720;81;21164;-69
2022/01/14 02:47:28;;;;;;;3.15;1.80;;;;;;;4.44;73.11;99873.67;1748459;81;21036;-69
2022/01/14 02:49:55;;;;;;;3.33;1.80;;;;;;;4.49;73.07;99864.53;1754186;81;21126;-69
2022/01/14 02:52:30;;;;;;;3.98;1.90;;;;;;;4.49;73.00;99876.95;1745235;81;21140;-69
2022/01/14 02:55:13;;;;;;;3.17;1.80;;;;;;;4.48;73.01;99858.16;1742917;81;21010;-69
2022/01/14 02:57:20;;;;;;;3.52;1.95;;;;;;;4.48;73.02;99860.81;1749388;81;21201;-69
2022/01/14 02:59:46;;;;;;;3.17;1.92;;;;;;;4.49;73.07;99853.15;1753388;81;21052;-70
2022/01/14 03:02:13;;;;;;;3.72;1.85;;;;;;;4.48;73.15;99848.91;1748870;81;21098;-70
2022/01/14 03:04:39;;;;;;;3.47;2.10;;;;;;;4.48;73.15;99833.84;1743453;81;21064;-70
2022/01/14 03:07:08;;;;;;;4.10;2.40;;;;;;;4.46;73.18;99833.27;1753920;81;21030;-68
2022/01/14 03:09:37;;;;;;;3.83;2.50;;;;;;;4.44;73.26;99829.54;1752154;81;21532;-68
2022/01/14 03:12:04;;;;;;;3.90;2.65;;;;;;;4.43;73.39;99819.98;1784700;79;21014;-72
2022/01/14 03:14:32;;;;;;;4.28;2.47;;;;;;;4.42;73.44;99830.28;1763016;81;21077;-68
2022/01/14 03:17:00;;;;;;;3.40;2.10;;;;;;;4.40;73.60;99795.85;1741983;81;21037;-68
2022/01/14 03:19:27;;;;;;;3.30;2.20;;;;;;;4.39;73.73;99804.31;1762887;81;21651;-68
2022/01/14 03:22:06;;;;;;;4.65;2.50;;;;;;;4.39;73.79;99809.59;1757852;81;21140;-69
2022/01/14 03:26:56;;;;;;;3.75;2.05;;;;;;;4.36;74.00;99796.84;1736194;81;20959;-69
2022/01/14 03:29:22;;;;;;;4.47;2.30;;;;;;;4.33;74.11;99782.77;1733996;81;21445;-69
2022/01/14 03:31:49;;;;;;;3.67;2.20;;;;;;;4.31;74.42;99785.36;1765254;81;21490;-70
2022/01/14 03:34:15;;;;;;;3.70;2.25;;;;;;;4.30;74.51;99772.66;1765254;79;21105;-70
2022/01/14 03:36:42;;;;;;;4.03;2.27;;;;;;;4.31;74.62;99763.72;1764846;81;21144;-69
2022/01/14 03:39:08;;;;;;;3.20;2.15;;;;;;;4.31;74.70;99754.46;1764214;79;21076;-70
2022/01/14 03:41:35;;;;;;;3.52;2.17;;;;;;;4.30;74.79;99736.97;1763143;81;21073;-69
2022/01/14 03:44:03;;;;;;;3.92;2.50;;;;;;;4.27;75.05;99749.34;1763463;81;20955;-69
2022/01/14 03:46:29;;;;;;;4.72;2.50;;;;;;;4.31;75.08;99746.53;1764270;79;21125;-69
2022/01/14 03:48:56;;;;;;;5.60;2.70;;;;;;;4.31;75.11;99741.25;1764853;81;21140;-69
2022/01/14 03:51:23;;;;;;;5.30;2.70;;;;;;;4.32;75.08;99719.05;1764939;81;20947;-69
2022/01/14 03:53:50;;;;;;;3.85;2.40;;;;;;;4.30;75.13;99709.73;1764838;79;21002;-69
2022/01/14 03:56:17;;;;;;;4.37;2.37;;;;;;;4.28;75.32;99716.60;1765245;81;21033;-69
2022/01/14 03:58:43;;;;;;;4.20;2.60;;;;;;;4.27;75.36;99705.72;1765323;81;21517;-69
2022/01/14 04:01:11;;;;;;;4.37;2.27;;;;;;;4.27;75.42;99698.31;1765332;79;21442;-69
2022/01/14 04:03:40;;;;;;;3.62;2.40;;;;;;;4.26;75.51;99685.62;1765417;81;21533;-69
2022/01/14 04:06:10;;;;;;;3.92;2.40;;;;;;;4.29;75.54;99714.75;1765078;81;21108;-69
2022/01/14 04:08:37;;;;;;;5.60;2.60;;;;;;;4.28;75.67;99698.09;1765035;81;21089;-70
2022/01/14 04:11:04;;;;;;;4.80;2.80;;;;;;;4.34;75.53;99694.48;1765094;81;21496;-69
2022/01/14 04:13:44;;;;;;;4.58;2.70;;;;;;;4.36;75.50;99665.98;1764950;79;20954;-69
2022/01/14 04:16:03;;;;;;;4.97;2.90;;;;;;;4.38;75.47;99671.84;1763352;81;21101;-69
2022/01/14 04:18:30;;;;;;;4.70;2.55;;;;;;;4.41;75.36;99683.79;1764774;79;21497;-69
2022/01/14 04:20:56;;;;;;;4.80;2.85;;;;;;;4.39;75.37;99688.50;1765403;81;20927;-69
2022/01/14 04:23:23;;;;;;;4.25;2.52;;;;;;;4.43;75.30;99686.45;1765750;79;21061;-69
2022/01/14 04:25:51;;;;;;;5.60;2.37;;;;;;;4.45;75.22;99679.63;1765397;81;20994;-69
2022/01/14 04:28:23;;;;;;;4.33;2.70;;;;;;;4.49;75.17;99668.84;1765016;79;21654;-69
2022/01/14 04:30:56;;;;;;;5.12;2.37;;;;;;;4.50;75.10;99696.09;1765092;81;20979;-69
2022/01/14 04:33:24;;;;;;;4.80;2.65;;;;;;;4.51;75.00;99679.17;1765134;81;21057;-68
2022/01/14 04:35:51;;;;;;;3.72;2.40;;;;;;;4.55;74.91;99670.54;1765593;79;21098;-68
2022/01/14 04:38:18;;;;;;;4.05;2.10;;;;;;;4.57;74.80;99682.19;1790085;79;21014;-68
2022/01/14 04:40:44;;;;;;;3.80;2.30;;;;;;;4.52;74.78;99671.02;1786671;79;20958;-68
2022/01/14 04:43:12;;;;;;;5.22;2.55;;;;;;;4.55;74.76;99671.06;1764762;81;21057;-69
2022/01/14 04:48:08;;;;;;;5.47;2.62;;;;;;;4.58;74.70;99671.39;1764955;81;21505;-69
2022/01/14 04:50:35;;;;;;;3.60;2.37;;;;;;;4.60;74.54;99663.20;1764766;81;20990;-69
2022/01/14 04:53:01;;;;;;;5.15;2.40;;;;;;;4.60;74.55;99647.33;1765044;81;21489;-69
2022/01/14 04:55:28;;;;;;;5.10;2.75;;;;;;;4.62;74.50;99667.22;1765048;81;21589;-69
2022/01/14 04:57:56;;;;;;;4.75;2.58;;;;;;;4.59;74.60;99650.50;1764879;79;21541;-68
2022/01/14 05:00:27;;;;;;;4.10;2.58;;;;;;;4.58;74.65;99641.50;1765564;79;21103;-68
2022/01/14 05:02:55;;;;;;;;;;;;;;;4.58;74.64;99644.94;1767722;81;20978;-68
2022/01/14 05:05:28;;;;;;;3.95;2.40;;;;;;;4.58;74.69;99642.30;1765126;81;20168;-69
2022/01/14 05:07:54;;;;;;;4.17;2.33;;;;;;;4.59;74.80;99619.28;1765203;81;20991;-68
2022/01/14 05:12:49;;;;;;;4.42;2.65;;;;;;;4.55;75.13;99639.33;1764942;81;21200;-69
2022/01/14 05:15:17;;;;;;;4.55;2.50;;;;;;;4.54;75.32;99628.45;1765346;81;21504;-69
2022/01/14 05:17:44;;;;;;;4.20;2.20;;;;;;;4.55;75.33;99628.23;1764959;81;21030;-69
2022/01/14 05:20:11;;;;;;;3.60;2.17;;;;;;;4.55;75.33;99605.75;1766623;79;21037;-69
2022/01/14 05:22:37;;;;;;;4.30;2.40;;;;;;;4.56;75.36;99603.90;1794957;79;21425;-68
2022/01/14 05:25:06;;;;;;;4.95;2.60;;;;;;;4.53;75.47;99604.37;1789149;80;22166;-68
2022/01/14 05:27:34;;;;;;;4.55;2.50;;;;;;;4.57;75.44;99602.84;1789203;80;20982;-68
2022/01/14 05:30:02;;;;;;;4.70;2.60;;;;;;;4.56;75.46;99605.22;1766160;80;20966;-68
2022/01/14 05:32:29;;;;;;;4.08;2.50;;;;;;;4.55;75.54;99604.95;1765045;81;21037;-69
2022/01/14 05:34:55;;;;;;;5.20;2.65;;;;;;;4.56;75.53;99589.35;1765276;81;21541;-68
2022/01/14 05:37:22;;;;;;;4.17;2.60;;;;;;;4.50;75.76;99573.13;1763189;79;21799;-68
2022/01/14 05:39:48;;;;;;;4.17;2.55;;;;;;;4.53;75.74;99570.80;1765575;81;21418;-69
2022/01/14 05:42:15;;;;;;;4.45;2.70;;;;;;;4.48;75.99;99554.88;1765033;81;21477;-68
2022/01/14 05:44:41;;;;;;;5.05;2.62;;;;;;;4.46;76.07;99553.77;1765641;79;20994;-68
2022/01/14 05:47:08;;;;;;;4.90;2.98;;;;;;;4.49;76.09;99550.38;1765028;81;21046;-68
2022/01/14 05:49:34;;;;;;;4.62;2.72;;;;;;;4.48;76.11;99551.42;1765285;81;21488;-68
2022/01/14 05:52:01;;;;;;;5.08;3.00;;;;;;;4.48;76.14;99546.14;1764545;81;21017;-68
2022/01/14 05:54:27;;;;;;;4.78;2.87;;;;;;;4.49;76.25;99543.77;1765416;81;20986;-68
2022/01/14 05:56:54;;;;;;;4.75;2.75;;;;;;;4.49;76.24;99545.88;1765053;81;21030;-68
2022/01/14 05:59:20;;;;;;;5.83;3.10;;;;;;;4.47;76.34;99546.63;1765107;79;21072;-68
2022/01/14 06:01:46;;;;;;;5.30;3.33;;;;;;;4.49;76.42;99533.19;1764936;81;21129;-68
2022/01/14 06:04:13;;;;;;;4.97;2.75;;;;;;;4.49;76.45;99517.33;1765039;81;21084;-68
2022/01/14 06:06:39;;;;;;;6.22;2.98;;;;;;;4.51;76.41;99540.34;1765090;81;21073;-68
2022/01/14 06:09:09;;;;;;;6.00;3.10;;;;;;;4.49;76.43;99536.63;1765009;81;21013;-69
2022/01/14 06:11:36;;;;;;;6.08;3.33;;;;;;;4.51;76.37;99534.55;1764999;81;21021;-69
2022/01/14 06:14:03;;;;;;;4.72;3.00;;;;;;;4.49;76.42;99521.30;1764999;81;21635;-69
2022/01/14 06:16:30;;;;;;;5.22;3.55;;;;;;;4.49;76.43;99522.61;1764775;81;20991;-69
2022/01/14 06:18:56;;;;;;;6.30;3.35;;;;;;;4.48;76.44;99505.16;1764942;79;20970;-68
2022/01/14 06:21:23;;;;;;;5.47;3.58;;;;;;;4.50;76.35;99510.45;1765028;81;21025;-69
2022/01/14 06:23:49;;;;;;;7.67;3.95;;;;;;;4.47;76.46;99514.91;1765389;81;21093;-69
2022/01/14 06:26:15;;;;;;;5.97;3.90;;;;;;;4.51;76.35;99494.06;1765402;81;20956;-69
2022/01/14 06:28:43;;;;;;;5.70;3.87;;;;;;;4.53;76.34;99490.67;1765014;81;21026;-68
2022/01/14 06:31:10;;;;;;;6.40;4.03;;;;;;;4.55;76.21;99487.27;1765138;81;21404;-69
2022/01/14 06:33:38;;;;;;;8.55;5.12;;;;;;;4.57;76.10;99483.84;1765028;79;20947;-68
2022/01/14 06:36:04;;;;;;;6.87;4.45;;;;;;;4.58;76.04;99482.82;1763446;81;21058;-68
2022/01/14 06:38:32;;;;;;;8.25;4.60;;;;;;;4.60;75.86;99477.55;1763383;81;21175;-69
2022/01/14 06:40:59;;;;;;;9.00;5.12;;;;;;;4.63;75.71;99467.00;1763668;81;21042;-69
2022/01/14 06:43:26;;;;;;;8.65;4.92;;;;;;;4.60;75.65;99478.07;1763353;81;21061;-69
2022/01/14 06:45:52;;;;;;;8.25;5.08;;;;;;;4.65;75.40;99467.57;1763543;81;21019;-68
2022/01/14 06:48:26;;;;;;;8.75;5.37;;;;;;;4.66;75.34;99461.23;1763394;81;20950;-68
2022/01/14 06:50:55;;;;;;;7.85;4.85;;;;;;;4.72;75.12;99439.09;1763161;81;20931;-69
2022/01/14 06:53:21;;;;;;;7.72;4.83;;;;;;;4.74;74.88;99446.77;1731010;81;20994;-69
2022/01/14 06:55:48;;;;;;;8.65;5.20;;;;;;;4.78;74.73;99414.30;1763384;81;21423;-69
2022/01/14 06:58:16;;;;;;;8.90;5.20;;;;;;;4.83;74.49;99406.94;1763384;81;21529;-67
2022/01/14 07:00:43;;;;;;;11.90;5.60;;;;;;;4.84;74.30;99419.14;1763291;81;20987;-68
2022/01/14 07:03:10;;;;;;;9.73;5.17;;;;;;;4.91;74.13;99407.84;1763325;81;22120;-67
2022/01/14 07:05:36;;;;;;;10.93;5.75;;;;;;;4.94;73.75;99406.82;1763461;81;20975;-67
2022/01/14 07:08:04;;;;;;;8.43;5.25;;;;;;;4.90;73.63;99414.16;1763342;81;20943;-69
2022/01/14 07:10:36;;;;;;;9.20;6.08;;;;;;;4.93;73.41;99391.17;1763648;81;21441;-68
2022/01/14 07:13:04;;;;;;;9.58;5.55;;;;;;;5.00;73.21;99392.30;1763412;81;21057;-69
2022/01/14 07:15:32;;;;;;;11.30;6.22;;;;;;;5.01;73.05;99384.66;1763558;81;21103;-69
2022/01/14 07:17:58;;;;;;;8.95;5.33;;;;;;;5.01;72.94;99367.46;1763345;81;21035;-69
2022/01/14 07:20:24;;;;;;;8.65;5.85;;;;;;;5.07;72.74;99367.80;1763505;81;21038;-68
2022/01/14 07:22:51;;;;;;;11.75;5.87;;;;;;;5.08;72.58;99382.61;1763282;81;21502;-67
2022/01/14 07:25:19;;;;;;;9.85;6.08;;;;;;;5.05;72.35;99394.49;1763845;81;21049;-69
2022/01/14 07:27:46;;;;;;;11.48;6.12;;;;;;;5.08;72.32;99398.49;1763164;81;21806;-68
2022/01/14 07:30:15;;;;;;;9.25;5.92;;;;;;;5.11;72.08;99392.17;1763347;81;21552;-69
2022/01/14 07:32:42;;;;;;;11.18;5.83;;;;;;;5.11;71.95;99403.30;1763886;79;21005;-68
2022/01/14 07:35:10;;;;;;;10.38;6.15;;;;;;;5.14;71.86;99358.59;1763440;81;21657;-69
2022/01/14 07:37:36;;;;;;;9.98;5.97;;;;;;;5.18;71.67;99364.98;1763589;81;21524;-68
2022/01/14 07:40:05;;;;;;;10.93;5.42;;;;;;;5.19;71.51;99337.98;1765225;79;22144;-69
2022/01/14 07:42:33;;;;;;;9.30;6.03;;;;;;;5.21;71.25;99378.24;1765326;81;21521;-68
2022/01/14 07:44:59;;;;;;;9.18;5.72;;;;;;;5.24;71.13;99341.22;1765175;81;20998;-68
2022/01/14 07:47:27;;;;;;;11.90;6.72;;;;;;;5.22;70.91;99343.30;1764725;81;21017;-69
2022/01/14 07:49:55;;;;;;;10.55;6.00;;;;;;;5.25;70.81;99334.33;1765094;81;20997;-68
2022/01/14 07:52:23;;;;;;;10.43;6.35;;;;;;;5.25;70.63;99335.66;1765312;81;21900;-68
2022/01/14 07:54:49;;;;;;;10.45;5.60;;;;;;;5.29;70.52;99334.62;1766298;79;21030;-68
2022/01/14 07:57:18;;;;;;;10.50;5.83;;;;;;;5.29;70.27;99339.91;1764912;81;20990;-68
2022/01/14 07:59:46;;;;;;;10.98;5.70;;;;;;;5.30;70.21;99339.68;1765237;79;21162;-68
2022/01/14 08:02:15;;;;;;;10.63;5.42;;;;;;;5.29;70.01;99327.47;1788407;80;21069;-68
2022/01/14 08:04:42;;;;;;;8.78;5.55;;;;;;;5.22;70.20;99320.27;1789707;80;21026;-68
2022/01/14 08:07:09;;;;;;;9.70;5.28;;;;;;;5.17;70.21;99350.16;1789139;80;21002;-68
2022/01/14 08:09:41;;;;;;;9.28;5.37;;;;;;;5.20;70.18;99337.45;1789242;80;21049;-68
2022/01/14 08:12:12;;;;;;;8.70;5.08;;;;;;;5.21;70.11;99318.68;1789237;80;21046;-68
2022/01/14 08:14:42;;;;;;;8.95;4.50;;;;;;;5.23;69.90;99287.47;1775312;79;21636;-68
2022/01/14 08:17:09;;;;;;;9.20;5.03;;;;;;;5.29;69.56;99301.00;1765029;81;21115;-68
2022/01/14 08:19:36;;;;;;;8.28;4.33;;;;;;;5.34;69.38;99293.11;1765878;79;20998;-68
2022/01/14 08:22:05;;;;;;;7.17;4.30;;;;;;;5.33;68.88;99289.38;1764782;81;21053;-68
2022/01/14 08:24:32;;;;;;;7.05;4.00;;;;;;;5.40;68.78;99268.27;1766154;79;20998;-68
2022/01/14 08:26:58;;;;;;;7.78;4.80;;;;;;;5.41;68.45;99253.17;1734729;82;21045;-67
2022/01/14 08:29:28;;;;;;;8.00;4.30;;;;;;;5.46;68.35;99260.34;1734827;82;21153;-69
2022/01/14 08:31:57;;;;;;;8.18;4.05;;;;;;;5.45;68.10;99258.75;1748311;79;20995;-69
2022/01/14 08:34:27;;;;;;;8.38;4.33;;;;;;;5.47;67.96;99244.75;1763276;81;21058;-69
2022/01/14 08:36:54;;;;;;;5.37;3.80;;;;;;;5.49;67.78;99208.98;1763499;81;21096;-69
2022/01/14 08:39:20;;;;;;;6.87;3.75;;;;;;;5.52;67.51;99199.20;1763953;80;21053;-68
2022/01/14 08:41:46;;;;;;;7.28;4.00;;;;;;;5.58;67.40;99214.61;1765323;81;21516;-67
2022/01/14 08:44:14;;;;;;;7.50;3.90;;;;;;;5.59;67.19;99250.62;1765049;81;21008;-67
2022/01/14 08:46:42;;;;;;;6.53;3.62;;;;;;;5.57;67.01;99226.27;1765006;81;20993;-68
2022/01/14 08:49:09;;;;;;;5.87;3.37;;;;;;;5.65;66.83;99266.83;1765257;81;21069;-67
2022/01/14 08:51:37;;;;;;;6.08;3.85;;;;;;;5.70;66.59;99215.74;1765138;81;21112;-67
2022/01/14 08:54:04;;;;;;;7.15;3.92;;;;;;;5.73;66.42;99224.50;1765059;81;21520;-67
2022/01/14 08:56:31;;;;;;;9.28;4.17;;;;;;;5.75;66.31;99207.80;1764847;81;20935;-68
2022/01/14 08:58:58;;;;;;;7.15;3.72;;;;;;;5.77;66.10;99203.84;1765251;81;20947;-68
2022/01/14 09:01:26;;;;;;;7.60;4.30;;;;;;;5.82;66.13;99188.48;1765138;79;21042;-68
2022/01/14 09:03:54;;;;;;;7.12;3.70;;;;;;;5.81;65.96;99178.95;1765133;81;20931;-68
2022/01/14 09:06:21;;;;;;;7.20;4.08;;;;;;;5.80;65.87;99176.05;1765002;81;21496;-68
2022/01/14 09:08:49;;;;;;;7.35;3.55;;;;;;;5.76;65.88;99211.53;1764625;81;37654;-68
2022/01/14 09:11:16;;;;;;;6.37;3.27;;;;;;;5.80;65.89;99157.50;1765074;81;21445;-68
2022/01/14 09:13:43;;;;;;;6.87;3.70;;;;;;;5.81;65.78;99178.42;1765060;81;20951;-67
2022/01/14 09:16:09;;;;;;;6.70;3.85;;;;;;;5.82;65.74;99160.16;1765934;79;21026;-66
2022/01/14 09:18:35;;;;;;;6.22;3.50;;;;;;;5.84;65.70;99159.89;1765332;81;22135;-67
2022/01/14 09:21:02;;;;;;;6.05;3.50;;;;;;;5.82;65.72;99158.84;1765346;79;21058;-67
2022/01/14 09:23:29;;;;;;;6.22;3.90;;;;;;;5.80;65.76;99158.29;1765168;81;20987;-68
2022/01/14 09:25:56;;;;;;;5.92;3.37;;;;;;;5.87;65.73;99160.16;1764889;81;20958;-67
2022/01/14 09:28:22;;;;;;;5.95;3.80;;;;;;;5.84;65.68;99157.23;1764958;81;21084;-67
2022/01/14 09:30:48;;;;;;;5.72;3.70;;;;;;;5.82;65.80;99145.59;1763823;79;21497;-67
2022/01/14 09:33:17;;;;;;;7.05;3.98;;;;;;;5.86;65.83;99154.61;1764726;79;21466;-67
2022/01/14 09:35:46;;;;;;;5.28;3.37;;;;;;;5.83;65.77;99152.47;1765030;81;21505;-68
2022/01/14 09:38:13;;;;;;;6.05;3.62;;;;;;;5.79;65.83;99160.68;1764749;79;21041;-68
2022/01/14 09:40:44;;;;;;;7.95;4.25;;;;;;;5.76;65.98;99138.67;1764806;81;21505;-68
2022/01/14 09:43:14;;;;;;;6.17;4.08;;;;;;;5.74;66.12;99114.28;1764694;81;21050;-68
2022/01/14 09:45:40;;;;;;;5.95;4.05;;;;;;;5.78;66.05;99107.40;1764768;81;21025;-68
2022/01/14 09:48:07;;;;;;;5.92;3.80;;;;;;;5.84;65.98;99103.71;1764997;79;20990;-68
2022/01/14 09:50:33;;;;;;;6.50;4.20;;;;;;;5.81;66.07;99104.23;1765015;81;21088;-68
2022/01/14 09:53:00;;;;;;;7.70;4.35;;;;;;;5.80;66.12;99105.83;1764929;81;21093;-68
2022/01/14 09:55:26;;;;;;;6.30;3.85;;;;;;;5.80;66.19;99100.53;1766304;79;21666;-68
2022/01/14 09:57:57;;;;;;;7.12;4.25;;;;;;;5.80;66.22;99094.70;1765676;79;21113;-68
2022/01/14 10:00:24;;;;;;;6.53;4.00;;;;;;;5.79;66.28;99060.50;1762464;81;21513;-68
2022/01/14 10:02:50;;;;;;;6.67;3.80;;;;;;;5.83;66.24;99096.83;1764931;81;21156;-68
2022/01/14 10:05:37;;;;;;;6.40;4.10;;;;;;;5.83;66.23;99035.09;1765337;79;20989;-68
2022/01/14 10:08:19;;;;;;;6.72;4.03;;;;;;;5.84;66.30;99067.94;1765000;81;21103;-67
2022/01/14 10:10:56;;;;;;;7.30;4.40;;;;;;;5.83;66.28;99070.87;1764865;81;21532;-67
2022/01/14 10:13:32;;;;;;;5.95;3.90;;;;;;;5.84;66.32;99062.64;1764734;79;21548;-66
2022/01/14 10:16:05;;;;;;;7.03;4.12;;;;;;;5.86;66.31;99049.94;1734128;82;21838;-67
2022/01/14 10:18:35;;;;;;;5.65;3.83;;;;;;;5.88;66.30;99031.11;1734616;82;21037;-67
2022/01/14 10:21:05;;;;;;;8.13;4.10;;;;;;;5.85;66.31;99020.50;1734753;82;21512;-67
2022/01/14 10:23:48;;;;;;;6.20;4.10;;;;;;;5.86;66.32;99014.17;1734480;82;21528;-67
2022/01/14 10:26:16;;;;;;;8.20;4.25;;;;;;;5.88;66.22;99016.54;1734892;82;20938;-69
2022/01/14 10:28:45;;;;;;;5.53;3.70;;;;;;;5.91;66.22;98996.67;1743948;79;21022;-66
2022/01/14 10:31:12;;;;;;;5.60;3.50;;;;;;;5.93;66.17;98975.52;1763203;81;21041;-67
2022/01/14 10:33:38;;;;;;;5.35;3.42;;;;;;;5.96;66.13;99020.57;1763676;81;21431;-68
2022/01/14 10:36:06;;;;;;;5.65;3.35;;;;;;;5.96;66.13;98992.21;1763243;81;21077;-67
2022/01/14 10:38:46;;;;;;;5.17;2.85;;;;;;;6.00;66.05;98991.15;1731801;81;21027;-67
2022/01/14 10:41:09;;;;;;;4.78;3.17;;;;;;;6.03;65.95;98985.32;1762644;81;21034;-67
2022/01/14 10:43:38;;;;;;;5.03;3.40;;;;;;;6.08;65.85;98970.72;1763331;81;20978;-67
2022/01/14 10:46:10;;;;;;;4.62;3.22;;;;;;;6.17;65.65;98963.83;1763604;81;22083;-67
2022/01/14 10:48:41;;;;;;;4.58;2.90;;;;;;;6.20;65.49;98971.25;1763673;81;21461;-68
2022/01/14 10:51:14;;;;;;;4.47;2.35;;;;;;;6.25;65.30;98939.45;1763427;81;21046;-68
2022/01/14 10:53:43;;;;;;;4.65;2.40;;;;;;;6.34;65.00;98886.64;1763438;81;21030;-68
2022/01/14 10:56:13;;;;;;;5.62;2.75;;;;;;;6.31;64.67;98955.59;1763613;81;21029;-68
2022/01/14 10:58:45;;;;;;;4.75;2.83;;;;;;;6.34;64.74;98927.20;1763293;81;21466;-67
2022/01/14 11:01:20;;;;;;;4.65;2.62;;;;;;;6.42;64.68;98950.29;1762936;81;20987;-68
2022/01/14 11:04:03;;;;;;;4.60;2.90;;;;;;;6.46;64.53;98926.93;1763297;81;20959;-68
2022/01/14 11:06:34;;;;;;;4.37;2.70;;;;;;;6.44;64.48;98895.89;1763213;81;20959;-68
2022/01/14 11:09:11;;;;;;;5.05;2.60;;;;;;;6.44;64.54;98880.52;1763355;81;21034;-67
2022/01/14 11:11:40;;;;;;;5.20;2.83;;;;;;;6.40;64.51;98874.17;1763053;81;21133;-70
2022/01/14 11:14:08;;;;;;;4.75;2.77;;;;;;;6.44;64.58;98860.63;1763328;81;20974;-67
2022/01/14 11:16:35;;;;;;;5.67;3.10;;;;;;;6.43;64.60;98869.12;1763563;81;21497;-69
2022/01/14 11:19:03;;;;;;;4.72;3.20;;;;;;;6.35;64.86;98843.17;1763357;81;21035;-69
2022/01/14 11:24:28;;;;;;;6.20;3.33;;;;;;;6.29;65.29;98834.97;1763497;81;21162;-69
2022/01/14 11:26:59;;;;;;;5.45;3.55;;;;;;;6.23;65.52;98836.84;1763526;79;21064;-68
2022/01/14 11:29:25;;;;;;;5.65;3.45;;;;;;;6.15;65.89;98828.63;1763759;79;21018;-68
2022/01/14 11:31:58;;;;;;;6.05;3.90;;;;;;;6.17;65.93;98807.97;1750647;79;20982;-69
2022/01/14 11:34:42;;;;;;;7.42;3.77;;;;;;;6.14;66.12;98814.59;1802710;79;21025;-70
2022/01/14 11:37:13;;;;;;;7.50;4.20;;;;;;;6.09;66.38;98826.02;1802293;79;21116;-68
2022/01/14 11:39:57;;;;;;;6.20;4.10;;;;;;;6.09;66.50;98806.14;1786254;78;21494;-69
2022/01/14 11:42:59;;;;;;;6.72;4.15;;;;;;;6.04;66.78;98796.08;1746449;81;21077;-69
2022/01/14 11:45:46;;;;;;;6.40;3.62;;;;;;;5.98;67.08;98830.27;1764778;81;21002;-68
2022/01/14 11:48:35;;;;;;;6.70;4.10;;;;;;;5.88;67.57;98798.72;1764550;80;21002;-69
2022/01/14 11:51:12;;;;;;;7.62;4.50;;;;;;;5.85;67.76;98795.82;1764935;81;21556;-69
2022/01/14 11:53:48;;;;;;;7.75;4.67;;;;;;;5.87;67.83;98791.06;1764782;81;21411;-69
2022/01/14 11:56:38;;;;;;;6.80;4.37;;;;;;;5.83;67.93;98773.58;1764866;81;21006;-68
2022/01/14 11:59:28;;;;;;;7.83;3.37;;;;;;;5.83;68.04;98771.47;1765601;79;21025;-67
2022/01/14 12:01:56;;;;;;;5.95;3.58;;;;;;;5.86;68.10;98776.23;1765002;81;21489;-68
2022/01/14 12:04:23;;;;;;;6.28;4.00;;;;;;;5.81;68.20;98758.48;1765654;79;21052;-69
2022/01/14 12:06:59;;;;;;;6.95;4.00;;;;;;;5.81;68.26;98747.09;1764159;79;21225;-69
2022/01/14 12:09:33;;;;;;;7.20;4.15;;;;;;;5.82;68.27;98729.62;1764921;81;20955;-69
2022/01/14 12:12:24;;;;;;;5.35;3.37;;;;;;;5.79;68.37;98744.72;1765211;81;21013;-69
2022/01/14 12:14:59;;;;;;;4.92;3.12;;;;;;;5.82;68.38;98730.13;1764444;81;21037;-69